Time,TemperatureF,DewpointF,PressureIn,WindDirection,WindDirectionDegrees,WindSpeedMPH,WindSpeedGustMPH,Humidity,HourlyPrecipIn,Conditions,Clouds,dailyrainin,SoftwareType,DateUTC
2013-11-20 00:16:00,22.3,11.2,30.21,N/A,-737280,0.0,0.0,62,0.00,,,0.00,Wunderground v.1.12,2013-11-20 05:16:00,
2013-11-20 00:45:00,21.4,10.4,30.23,NW,311,0.0,0.0,62,0.00,,,0.00,Wunderground v.1.12,2013-11-20 05:45:00,
2013-11-20 01:16:00,21.6,11.3,30.23,NW,315,0.0,2.0,64,0.00,,,0.00,Wunderground v.1.12,2013-11-20 06:16:00,
2013-11-20 01:45:00,20.9,9.5,30.25,NW,311,0.0,0.0,61,0.00,,,0.00,Wunderground v.1.12,2013-11-20 06:45:00,
2013-11-20 02:16:00,21.1,10.1,30.25,N/A,-737280,0.0,0.0,62,0.00,,,0.00,Wunderground v.1.12,2013-11-20 07:16:00,
2013-11-20 02:45:00,20.3,11.1,30.27,NW,311,0.0,0.0,67,0.00,,,0.00,Wunderground v.1.12,2013-11-20 07:45:00,
2013-11-20 03:16:00,20.7,11.1,30.27,N/A,-737280,0.0,0.0,66,0.00,,,0.00,Wunderground v.1.12,2013-11-20 08:16:00,
2013-11-20 03:45:00,19.7,10.8,30.29,NW,311,0.0,0.0,68,0.00,,,0.00,Wunderground v.1.12,2013-11-20 08:45:00,
2013-11-20 04:15:00,20.1,11.2,30.29,N/A,-737280,0.0,0.0,68,0.00,,,0.00,Wunderground v.1.12,2013-11-20 09:15:00,
2013-11-20 04:45:00,18.6,9.1,30.31,NW,312,0.0,0.0,66,0.00,,,0.00,Wunderground v.1.12,2013-11-20 09:45:00,
2013-11-20 05:16:00,18.6,9.5,30.32,N/A,-737280,0.0,0.0,67,0.00,,,0.00,Wunderground v.1.12,2013-11-20 10:16:00,
2013-11-20 05:45:00,16.5,7.1,30.32,NW,312,0.0,0.0,66,0.00,,,0.00,Wunderground v.1.12,2013-11-20 10:45:00,
2013-11-20 06:15:00,16.9,7.8,30.33,N/A,-737280,0.0,0.0,67,0.00,,,0.00,Wunderground v.1.12,2013-11-20 11:15:00,
2013-11-20 06:45:00,16.0,7.3,30.34,NW,311,0.0,0.0,68,0.00,,,0.00,Wunderground v.1.12,2013-11-20 11:45:00,
2013-11-20 07:16:00,16.2,7.5,30.35,N/A,-737280,0.0,0.0,68,0.00,,,0.00,Wunderground v.1.12,2013-11-20 12:16:00,
2013-11-20 07:45:00,17.5,9.1,30.36,NW,311,0.0,0.0,69,0.00,,,0.00,Wunderground v.1.12,2013-11-20 12:45:00,
2013-11-20 08:16:00,15.8,7.4,30.36,N/A,-737280,0.0,0.0,69,0.00,,,0.00,Wunderground v.1.12,2013-11-20 13:16:00,
2013-11-20 08:45:00,22.4,12.4,30.38,West,279,0.0,0.0,65,0.00,,,0.00,Wunderground v.1.12,2013-11-20 13:45:00,
2013-11-20 09:16:00,20.2,11.0,30.39,N/A,-737280,0.0,0.0,67,0.00,,,0.00,Wunderground v.1.12,2013-11-20 14:16:00,
2013-11-20 09:45:00,26.2,14.2,30.39,SSW,208,0.0,0.0,60,0.00,,,0.00,Wunderground v.1.12,2013-11-20 14:45:00,
2013-11-20 10:16:00,24.4,13.2,30.41,SSW,203,0.0,5.0,62,0.00,,,0.00,Wunderground v.1.12,2013-11-20 15:16:00,
2013-11-20 10:45:00,30.7,16.4,30.39,SSW,208,0.0,0.0,55,0.00,,,0.00,Wunderground v.1.12,2013-11-20 15:45:00,
2013-11-20 11:16:00,28.4,14.7,30.41,SSW,203,0.0,4.0,56,0.00,,,0.00,Wunderground v.1.12,2013-11-20 16:16:00,
2013-11-20 11:45:00,33.2,16.5,30.36,South,180,3.0,3.0,50,0.00,,,0.00,Wunderground v.1.12,2013-11-20 16:45:00,
2013-11-20 12:16:00,31.7,14.7,30.38,SSE,158,0.0,6.0,49,0.00,,,0.00,Wunderground v.1.12,2013-11-20 17:16:00,
2013-11-20 12:45:00,34.4,15.2,30.36,South,179,0.0,0.0,45,0.00,,,0.00,Wunderground v.1.12,2013-11-20 17:45:00,
2013-11-20 13:16:00,33.5,14.9,30.37,South,180,0.0,4.0,46,0.00,,,0.00,Wunderground v.1.12,2013-11-20 18:16:00,
2013-11-20 13:45:00,35.4,15.6,30.34,South,179,4.0,4.0,44,0.00,,,0.00,Wunderground v.1.12,2013-11-20 18:45:00,
2013-11-20 14:16:00,35.2,16.0,30.35,South,180,1.0,6.0,45,0.00,,,0.00,Wunderground v.1.12,2013-11-20 19:16:00,
2013-11-20 14:45:00,35.3,15.0,30.34,South,175,3.0,3.0,43,0.00,,,0.00,Wunderground v.1.12,2013-11-20 19:45:00,
2013-11-20 15:15:00,35.7,14.8,30.35,South,180,0.0,5.0,42,0.00,,,0.00,Wunderground v.1.12,2013-11-20 20:15:00,
2013-11-20 16:15:00,34.6,14.4,30.35,South,180,0.0,3.0,43,0.00,,,0.00,Wunderground v.1.12,2013-11-20 21:15:00,
2013-11-20 16:45:00,32.6,14.1,30.36,N/A,-737280,0.0,0.0,46,0.00,,,0.00,Wunderground v.1.12,2013-11-20 21:45:00,
2013-11-20 17:15:00,30.1,12.3,30.36,N/A,-737280,0.0,0.0,47,0.00,,,0.00,Wunderground v.1.12,2013-11-20 22:15:00,
2013-11-20 17:45:00,27.8,12.9,30.36,N/A,-737280,0.0,0.0,53,0.00,,,0.00,Wunderground v.1.12,2013-11-20 22:45:00,
2013-11-20 18:15:00,25.8,12.2,30.36,N/A,-737280,0.0,0.0,56,0.00,,,0.00,Wunderground v.1.12,2013-11-20 23:15:00,
2013-11-20 18:45:00,24.5,12.2,30.37,N/A,-737280,0.0,0.0,59,0.00,,,0.00,Wunderground v.1.12,2013-11-20 23:45:00,
2013-11-20 19:16:00,21.9,11.2,30.38,South,175,0.0,0.0,63,0.00,,,0.00,Wunderground v.1.12,2013-11-21 00:16:00,
2013-11-20 19:45:00,21.2,11.6,30.38,South,175,0.0,0.0,66,0.00,,,0.00,Wunderground v.1.12,2013-11-21 00:45:00,
2013-11-20 20:15:00,21.8,11.8,30.38,N/A,-737280,0.0,0.0,65,0.00,,,0.00,Wunderground v.1.12,2013-11-21 01:15:00,
2013-11-20 20:45:00,22.3,12.3,30.37,South,175,0.0,0.0,65,0.00,,,0.00,Wunderground v.1.12,2013-11-21 01:45:00,
2013-11-20 21:16:00,22.1,12.1,30.38,N/A,-737280,0.0,0.0,65,0.00,,,0.00,Wunderground v.1.12,2013-11-21 02:16:00,
2013-11-20 21:45:00,22.7,12.7,30.36,South,175,0.0,0.0,65,0.00,,,0.00,Wunderground v.1.12,2013-11-21 02:45:00,
2013-11-20 22:16:00,22.4,12.4,30.37,N/A,-737280,0.0,0.0,65,0.00,,,0.00,Wunderground v.1.12,2013-11-21 03:16:00,
2013-11-20 22:45:00,22.2,12.6,30.35,South,174,0.0,0.0,66,0.00,,,0.00,Wunderground v.1.12,2013-11-21 03:45:00,
2013-11-20 23:16:00,22.2,12.6,30.36,N/A,-737280,0.0,0.0,66,0.00,,,0.00,Wunderground v.1.12,2013-11-21 04:16:00,
2013-11-20 23:45:00,23.1,12.7,30.34,South,175,0.0,0.0,64,0.00,,,0.00,Wunderground v.1.12,2013-11-21 04:45:00,